Friday, October 20, 2017 (19:29 UTC)
OPMET DATA  
Terminal Aerodrome Forecast (TAF) and METAR
TAFs are issued by Aviation Meteorological Office, for Abu Dhabi (OMAA), Bateen (OMAD), Al Ain (OMAL), Dubai (OMDB), Al Maktoum (OMDW), Sharjah (OMSJ), Ras Al Khaimah (OMRK) and Fujairah (OMFJ) airports. These TAFs are issued every 6 hours and are valid for a 30 hour period. METARs (Aviation Routine Weather Reports) are updated hourly.
Show ICAO codes
Select OPMET type:        SEARCH   PRINT
Aviation Meteorology - National Center of Meteorology & Seismology (NCMS)
Telephone: +971 2 5757346 / 5053676
Email: metweb@adiamet.gov.ae
Website: www.avmet.ae
METAR OMAA 201900Z 31009KT CAVOK 30/20 Q1010 NOSIG=
METAR OMAD 201900Z 31007KT CAVOK 30/19 Q1011 NOSIG=
METAR OMAL 201900Z 33006KT CAVOK 27/17 Q1012 NOSIG=
METAR OMDB 201900Z VRB02KT CAVOK 32/21 Q1011 NOSIG=
METAR OMDW 201900Z 11006KT CAVOK 26/20 Q1012 NOSIG=
METAR OMFJ 201900Z 25002KT 4500 DU NSC 29/10 Q1010 RMK A2984=
METAR OMSJ 201900Z 17003KT CAVOK 28/19 Q1011=
METAR OMRK 201900Z 25004KT CAVOK 24/16 Q1011 A2986=
METAR OTBD 201900Z 31007KT 280V340 CAVOK 30/19 Q1012 NOSIG=
METAR OTHH 201900Z 32010KT CAVOK 29/19 Q1011 NOSIG=
METAR OBBI 201900Z 32008KT CAVOK 30/22 Q1012 NOSIG=
METAR OEDF 201900Z 31004KT CAVOK 27/18 Q1012 NOSIG=
METAR OEDR 201900Z 00000KT CAVOK 27/17 Q1011 NOSIG=
METAR OEJN 201900Z 34005KT CAVOK 28/24 Q1011 NOSIG=
METAR OEMA 201900Z 29007KT CAVOK 33/M05 Q1017 NOSIG=
METAR OEPA 201900Z 15013KT CAVOK 28/16 Q1014 NOSIG=
METAR OERF 201900Z 08014KT CAVOK 27/M04 Q1014=
METAR OERK 201900Z 00000KT CAVOK 27/M05 Q1018 NOSIG=
METAR OERR 201900Z 07008KT CAVOK 21/06 Q1015 NOSIG=
METAR OERY NIL=
METAR OESH 201900Z 02006KT CAVOK 27/04 Q1016 NOSIG=
METAR OETB 201800Z 17004KT CAVOK 22/M06 Q1017 NOSIG=
METAR OETF 201900Z 25002KT CAVOK 23/15 Q1023 NOSIG=
METAR OETR 201900Z 07010KT CAVOK 19/00 Q1017=
METAR OEWD 201900Z 13003KT CAVOK 24/07 Q1017 NOSIG=
METAR OEWJ 201900Z 34004KT CAVOK 25/22 Q1013 NOSIG=
METAR OEYN 201900Z 27006KT CAVOK 27/20 Q1010 NOSIG=
METAR OKBK 201900Z 19003KT CAVOK 24/02 Q1013 NOSIG=
METAR OOMS 201850Z VRB01KT 9000 HZ NSC 29/20 Q1010 NOSIG=
METAR OOSA 201850Z 36004KT CAVOK 26/20 Q1012 NOSIG=
METAR OYSN NIL=
METAR OYAA NIL=
 
Friday, October 20, 2017 (19:29 UTC)